Skip Navigation Links Skip Navigation Links

Current Weather

Waukegan Regional, Waukegan, Ill.

For information only: do not use for flight planning or navigation.
Latest weather
Observation time Wednesday, October 27, 2021 1:55 AM CDT
Local time Wednesday, October 27, 2021 2:37 AM CDT
Flight conditions Marginal Visual Meteorological Conditions
Winds
Wind speed calm
Visibility 10 mi.
Sky condition
Ceiling 2,400 ft. broken clouds
Cloud layer broken clouds 2,400 ft.
Temperature 42°F
Dewpoint 39°F
Altimeter 30.02 in.Hg
Derived measurements
Relative humidity 89%
Wind chill 42°F
Density altitude -403 ft.
Sea-level pressure 30.03 in.Hg
Remarks
Fully automated report.
Automated weather observing station with precipitation discriminator.
METAR KUGN 270655Z AUTO 00000KT 10SM BKN024 06/04 A3002 RMK AO2 SLP168 T00560039

Settings

Location code

InnerDrive.Weather 4.0.6770.0 Release CLR 4.0.30319.42000
Copyright ©2018 Inner Drive Technology. All rights reserved. Portions Copyright ©1986-2018 David Braverman.

Find weather

Site navigation


Skip Navigation Links

Place info

Page info

PayPal - The safer, easier way to pay online!

Return home.

Copyright ©2021 Inner Drive Technology. Purveyors of fine, hand-crafted computer software. Page printed 2021-10-27T07:37:29 UTC.